createdAt,value
2017-01-21T00:00:58.233Z,0
2017-01-21T00:01:57.812Z,0
2017-01-21T00:02:58.199Z,0
2017-01-21T00:03:57.929Z,0
2017-01-21T00:04:58.262Z,0
2017-01-21T00:05:57.399Z,0
2017-01-21T00:06:57.920Z,0
2017-01-21T00:07:58.050Z,0
2017-01-21T00:08:57.349Z,0
2017-01-21T00:09:57.355Z,0
2017-01-21T00:10:57.553Z,0
2017-01-21T00:11:57.592Z,0
2017-01-21T00:12:57.483Z,0
2017-01-21T00:13:57.868Z,0
2017-01-21T00:14:57.831Z,0
2017-01-21T00:15:57.397Z,0
2017-01-21T00:16:57.783Z,0
2017-01-21T00:17:57.343Z,0
2017-01-21T00:18:57.720Z,0
2017-01-21T00:19:57.294Z,0
2017-01-21T00:20:57.662Z,0
2017-01-21T00:21:57.243Z,0
2017-01-21T00:22:57.601Z,0
2017-01-21T00:23:57.619Z,0
2017-01-21T00:24:57.554Z,0
2017-01-21T00:25:56.749Z,0
2017-01-21T00:26:57.500Z,0
2017-01-21T00:27:57.075Z,0
2017-01-21T00:28:57.443Z,0
2017-01-21T00:29:57.404Z,0
2017-01-21T00:30:57.382Z,0
2017-01-21T00:31:56.552Z,0
2017-01-21T00:32:57.314Z,0
2017-01-21T00:33:56.905Z,0
2017-01-21T00:34:57.266Z,0
2017-01-21T00:35:57.238Z,0
2017-01-21T00:36:57.219Z,0
2017-01-21T00:37:57.175Z,0
2017-01-21T00:38:57.155Z,0
2017-01-21T00:39:57.118Z,0
2017-01-21T00:40:57.092Z,0
2017-01-21T00:41:57.065Z,0
2017-01-21T00:42:57.047Z,0
2017-01-21T00:43:57.054Z,0
2017-01-21T00:44:56.585Z,0
2017-01-21T00:45:56.955Z,0
2017-01-21T00:46:56.566Z,0
2017-01-21T00:47:56.945Z,0
2017-01-21T00:48:56.865Z,0
2017-01-21T00:49:56.840Z,0
2017-01-21T00:50:56.812Z,0
2017-01-21T00:51:56.773Z,0
2017-01-21T00:52:56.802Z,0
2017-01-21T00:53:56.313Z,0
2017-01-21T00:54:56.338Z,0
2017-01-21T00:55:56.661Z,0
2017-01-21T00:56:56.680Z,0
2017-01-21T00:57:56.661Z,0
2017-01-21T00:58:57.223Z,0
2017-01-21T00:59:56.146Z,0
2017-01-21T01:00:56.517Z,0
2017-01-21T01:01:56.151Z,0
2017-01-21T01:02:56.464Z,0
2017-01-21T01:03:56.433Z,0
2017-01-21T01:04:56.396Z,0
2017-01-21T01:05:56.429Z,0
2017-01-21T01:06:56.341Z,0
2017-01-21T01:07:55.519Z,0
2017-01-21T01:08:56.339Z,0
2017-01-21T01:09:56.252Z,0
2017-01-21T01:10:56.240Z,0
2017-01-21T01:11:56.207Z,0
2017-01-21T01:12:55.780Z,0
2017-01-21T01:13:55.767Z,0
2017-01-21T01:14:55.717Z,0
2017-01-21T01:15:55.694Z,0
2017-01-21T01:16:55.652Z,0
2017-01-21T01:17:56.037Z,0
2017-01-21T01:18:55.210Z,0
2017-01-21T01:19:55.577Z,0
2017-01-21T01:20:55.254Z,0
2017-01-21T01:21:55.906Z,0
2017-01-21T01:22:55.883Z,0
2017-01-21T01:23:55.508Z,0
2017-01-21T01:24:55.828Z,0
2017-01-21T01:25:55.401Z,0
2017-01-21T01:26:55.772Z,0
2017-01-21T01:27:55.795Z,0
2017-01-21T01:28:55.715Z,0
2017-01-21T01:29:55.730Z,0
2017-01-21T01:30:55.653Z,0
2017-01-21T01:31:55.622Z,0
2017-01-21T01:32:55.595Z,0
2017-01-21T01:33:55.215Z,0
2017-01-21T01:34:55.586Z,0
2017-01-21T01:35:55.565Z,0
2017-01-21T01:36:55.081Z,0
2017-01-21T01:37:55.450Z,0
2017-01-21T01:38:55.279Z,0
2017-01-21T01:39:55.388Z,0
2017-01-21T01:40:55.359Z,0
2017-01-21T01:41:54.545Z,0
2017-01-21T01:42:54.900Z,0
2017-01-21T01:43:54.925Z,0
2017-01-21T01:44:54.850Z,0
2017-01-21T01:45:55.211Z,0
2017-01-21T01:46:54.391Z,0
2017-01-21T01:47:55.163Z,0
2017-01-21T01:48:55.131Z,0
2017-01-21T01:49:54.755Z,0
2017-01-21T01:50:55.073Z,0
2017-01-21T01:51:55.044Z,0
2017-01-21T01:52:54.616Z,0
2017-01-21T01:53:54.611Z,0
2017-01-21T01:54:54.959Z,0
2017-01-21T01:55:54.937Z,0
2017-01-21T01:56:54.502Z,0
2017-01-21T01:57:54.868Z,0
2017-01-21T01:58:54.903Z,0
2017-01-21T01:59:54.416Z,0
2017-01-21T02:00:53.990Z,0
2017-01-21T02:01:54.750Z,0
2017-01-21T02:02:54.728Z,0
2017-01-21T02:03:54.696Z,0
2017-01-21T02:04:54.676Z,0
2017-01-21T02:05:54.647Z,0
2017-01-21T02:06:54.615Z,0
2017-01-21T02:07:54.186Z,0
2017-01-21T02:08:54.547Z,0
2017-01-21T02:09:54.531Z,0
2017-01-21T02:10:54.517Z,0
2017-01-21T02:11:54.072Z,0
2017-01-21T02:12:54.443Z,0
2017-01-21T02:13:54.409Z,0
2017-01-21T02:14:53.982Z,0
2017-01-21T02:15:54.395Z,0
2017-01-21T02:16:54.326Z,0
2017-01-21T02:17:54.355Z,0
2017-01-21T02:18:53.865Z,0
2017-01-21T02:19:53.916Z,0
2017-01-21T02:20:54.207Z,0
2017-01-21T02:21:54.224Z,0
2017-01-21T02:22:54.149Z,0
2017-01-21T02:23:53.823Z,0
2017-01-21T02:24:53.690Z,0
2017-01-21T02:25:54.071Z,0
2017-01-21T02:26:54.028Z,0
2017-01-21T02:27:54.054Z,0
2017-01-21T02:28:53.986Z,0
2017-01-21T02:29:53.951Z,0
2017-01-21T02:30:53.996Z,0
2017-01-21T02:31:53.899Z,0
2017-01-21T02:32:53.910Z,0
2017-01-21T02:33:53.485Z,0
2017-01-21T02:34:53.805Z,0
2017-01-21T02:35:53.428Z,0
2017-01-21T02:36:53.845Z,0
2017-01-21T02:37:53.524Z,0
2017-01-21T02:38:53.696Z,0
2017-01-21T02:39:53.259Z,0
2017-01-21T02:40:53.638Z,0
2017-01-21T02:41:53.199Z,0
2017-01-21T02:42:53.171Z,0
2017-01-21T02:43:53.540Z,0
2017-01-21T02:44:53.115Z,0
2017-01-21T02:45:53.486Z,0
2017-01-21T02:46:53.055Z,0
2017-01-21T02:47:53.424Z,0
2017-01-21T02:48:53.396Z,0
2017-01-21T02:49:53.388Z,0
2017-01-21T02:50:53.325Z,0
2017-01-21T02:51:52.113Z,0
2017-01-21T02:52:53.280Z,0
2017-01-21T02:53:53.250Z,0
2017-01-21T02:54:52.419Z,0
2017-01-21T02:55:53.218Z,0
2017-01-21T02:56:52.769Z,0
2017-01-21T02:57:53.146Z,0
2017-01-21T02:58:53.105Z,0
2017-01-21T02:59:53.082Z,0
2017-01-21T03:00:52.655Z,0
2017-01-21T03:01:53.015Z,0
2017-01-21T03:02:52.996Z,0
2017-01-21T03:03:52.967Z,0
2017-01-21T03:04:52.534Z,0
2017-01-21T03:05:52.910Z,0
2017-01-21T03:06:52.927Z,0
2017-01-21T03:07:52.444Z,0
2017-01-21T03:08:52.917Z,0
2017-01-21T03:09:52.822Z,0
2017-01-21T03:10:52.765Z,0
2017-01-21T03:11:52.780Z,0
2017-01-21T03:12:52.303Z,0
2017-01-21T03:13:52.277Z,0
2017-01-21T03:14:52.690Z,0
2017-01-21T03:15:52.671Z,0
2017-01-21T03:16:52.192Z,0
2017-01-21T03:17:51.758Z,0
2017-01-21T03:18:52.526Z,0
2017-01-21T03:19:52.504Z,0
2017-01-21T03:20:52.521Z,0
2017-01-21T03:21:52.455Z,0
2017-01-21T03:22:52.469Z,0
2017-01-21T03:23:52.011Z,0
2017-01-21T03:24:51.963Z,0
2017-01-21T03:25:52.330Z,0
2017-01-21T03:26:52.299Z,0
2017-01-21T03:27:52.267Z,0
2017-01-21T03:28:51.841Z,0
2017-01-21T03:29:52.210Z,0
2017-01-21T03:30:52.227Z,0
2017-01-21T03:31:51.356Z,0
2017-01-21T03:32:52.129Z,0
2017-01-21T03:33:52.094Z,0
2017-01-21T03:34:52.107Z,0
2017-01-21T03:35:51.237Z,0
2017-01-21T03:36:52.014Z,0
2017-01-21T03:37:51.589Z,0
2017-01-21T03:38:51.945Z,0
2017-01-21T03:39:51.924Z,0
2017-01-21T03:40:51.488Z,0
2017-01-21T03:41:51.884Z,0
2017-01-21T03:42:51.837Z,0
2017-01-21T03:43:51.851Z,0
2017-01-21T03:44:51.775Z,0
2017-01-21T03:45:52.042Z,0
2017-01-21T03:46:51.715Z,0
2017-01-21T03:47:51.699Z,0
2017-01-21T03:48:51.666Z,0
2017-01-21T03:49:51.624Z,0
2017-01-21T03:50:51.660Z,0
2017-01-21T03:51:51.570Z,0
2017-01-21T03:52:51.593Z,0
2017-01-21T03:53:51.516Z,0
2017-01-21T03:54:51.082Z,0
2017-01-21T03:55:50.658Z,0
2017-01-21T03:56:51.479Z,0
2017-01-21T03:57:51.005Z,0
2017-01-21T03:58:51.372Z,0
2017-01-21T03:59:51.336Z,0
2017-01-21T04:00:51.305Z,0
2017-01-21T04:01:51.279Z,0
2017-01-21T04:02:51.247Z,0
2017-01-21T04:03:51.216Z,0
2017-01-21T04:04:51.241Z,0
2017-01-21T04:05:51.261Z,0
2017-01-21T04:06:50.337Z,0
2017-01-21T04:07:51.123Z,0
2017-01-21T04:08:50.274Z,0
2017-01-21T04:09:51.053Z,0
2017-01-21T04:10:50.220Z,0
2017-01-21T04:11:51.030Z,0
2017-01-21T04:12:50.157Z,0
2017-01-21T04:13:50.576Z,0
2017-01-21T04:14:50.923Z,0
2017-01-21T04:15:50.481Z,0
2017-01-21T04:16:50.839Z,0
2017-01-21T04:17:50.415Z,0
2017-01-21T04:18:50.791Z,0
2017-01-21T04:19:50.765Z,0
2017-01-21T04:20:50.724Z,0
2017-01-21T04:21:50.692Z,0
2017-01-21T04:22:50.665Z,0
2017-01-21T04:23:50.243Z,0
2017-01-21T04:24:50.613Z,0
2017-01-21T04:25:50.613Z,0
2017-01-21T04:26:50.551Z,0
2017-01-21T04:27:50.521Z,0
2017-01-21T04:28:50.494Z,0
2017-01-21T04:29:50.057Z,0
2017-01-21T04:30:50.433Z,0
2017-01-21T04:31:50.406Z,0
2017-01-21T04:32:49.581Z,0
2017-01-21T04:33:50.352Z,0
2017-01-21T04:34:50.317Z,0
2017-01-21T04:35:49.894Z,0
2017-01-21T04:36:50.259Z,0
2017-01-21T04:37:50.281Z,0
2017-01-21T04:38:50.496Z,0
2017-01-21T04:39:49.428Z,0
2017-01-21T04:40:49.738Z,0
2017-01-21T04:41:49.738Z,0
2017-01-21T04:42:49.685Z,0
2017-01-21T04:43:50.100Z,0
2017-01-21T04:44:50.017Z,0
2017-01-21T04:45:49.993Z,0
2017-01-21T04:46:49.960Z,0
2017-01-21T04:47:49.930Z,0
2017-01-21T04:48:49.940Z,0
2017-01-21T04:49:49.879Z,0
2017-01-21T04:50:49.451Z,0
2017-01-21T04:51:49.815Z,0
2017-01-21T04:52:49.799Z,0
2017-01-21T04:53:49.755Z,0
2017-01-21T04:54:49.733Z,0
2017-01-21T04:55:49.700Z,0
2017-01-21T04:56:49.678Z,0
2017-01-21T04:57:49.644Z,0
2017-01-21T04:58:49.216Z,0
2017-01-21T04:59:49.589Z,0
2017-01-21T05:00:49.154Z,0
2017-01-21T05:01:49.534Z,0
2017-01-21T05:02:49.503Z,0
2017-01-21T05:03:49.520Z,0
2017-01-21T05:04:49.447Z,0
2017-01-21T05:05:49.400Z,0
2017-01-21T05:06:48.982Z,0
2017-01-21T05:07:49.348Z,0
2017-01-21T05:08:49.317Z,0
2017-01-21T05:09:49.293Z,0
2017-01-21T05:10:49.316Z,0
2017-01-21T05:11:48.834Z,0
2017-01-21T05:12:48.839Z,0
2017-01-21T05:13:49.174Z,0
2017-01-21T05:14:49.145Z,0
2017-01-21T05:15:49.119Z,0
2017-01-21T05:16:49.083Z,0
2017-01-21T05:17:49.103Z,0
2017-01-21T05:18:49.026Z,0
2017-01-21T05:19:48.994Z,0
2017-01-21T05:20:48.623Z,0
2017-01-21T05:21:48.936Z,0
2017-01-21T05:22:48.912Z,0
2017-01-21T05:23:48.080Z,0
2017-01-21T05:24:48.452Z,0
2017-01-21T05:25:49.115Z,0
2017-01-21T05:26:48.871Z,0
2017-01-21T05:27:48.807Z,0
2017-01-21T05:28:48.734Z,0
2017-01-21T05:29:48.306Z,0
2017-01-21T05:30:48.685Z,0
2017-01-21T05:31:48.652Z,0
2017-01-21T05:32:48.605Z,0
2017-01-21T05:33:48.588Z,0
2017-01-21T05:34:48.562Z,0
2017-01-21T05:35:48.524Z,0
2017-01-21T05:36:48.499Z,0
2017-01-21T05:37:48.511Z,0
2017-01-21T05:38:48.039Z,0
2017-01-21T05:39:47.620Z,0
2017-01-21T05:40:48.375Z,0
2017-01-21T05:41:48.355Z,0
2017-01-21T05:42:48.314Z,0
2017-01-21T05:43:47.887Z,0
2017-01-21T05:44:47.946Z,0
2017-01-21T05:45:48.229Z,0
2017-01-21T05:46:47.801Z,0
2017-01-21T05:47:48.173Z,0
2017-01-21T05:48:47.748Z,0
2017-01-21T05:49:48.106Z,0
2017-01-21T05:50:48.086Z,0
2017-01-21T05:51:48.056Z,0
2017-01-21T05:52:48.035Z,0
2017-01-21T05:53:47.650Z,0
2017-01-21T05:54:47.974Z,0
2017-01-21T05:55:47.939Z,0
2017-01-21T05:56:47.907Z,0
2017-01-21T05:57:47.875Z,0
2017-01-21T05:58:47.473Z,0
2017-01-21T05:59:47.816Z,0
2017-01-21T06:00:47.395Z,0
2017-01-21T06:01:47.357Z,0
2017-01-21T06:02:47.724Z,0
2017-01-21T06:03:47.700Z,0
2017-01-21T06:04:47.266Z,0
2017-01-21T06:05:47.666Z,0
2017-01-21T06:06:47.217Z,0
2017-01-21T06:07:47.193Z,0
2017-01-21T06:08:47.565Z,0
2017-01-21T06:09:47.127Z,0
2017-01-21T06:10:47.096Z,0
2017-01-21T06:11:47.079Z,0
2017-01-21T06:12:47.038Z,0
2017-01-21T06:13:47.017Z,0
2017-01-21T06:14:47.373Z,0
2017-01-21T06:15:46.952Z,0
2017-01-21T06:16:47.321Z,0
2017-01-21T06:17:46.887Z,0
2017-01-21T06:18:46.864Z,0
2017-01-21T06:19:47.235Z,0
2017-01-21T06:20:46.402Z,0
2017-01-21T06:21:47.172Z,0
2017-01-21T06:22:46.741Z,0
2017-01-21T06:23:46.714Z,0
2017-01-21T06:24:47.085Z,0
2017-01-21T06:25:46.310Z,0
2017-01-21T06:26:46.231Z,0
2017-01-21T06:27:46.995Z,0
2017-01-21T06:28:46.564Z,0
2017-01-21T06:29:46.937Z,0
2017-01-21T06:30:46.109Z,0
2017-01-21T06:31:46.484Z,0
2017-01-21T06:32:46.447Z,0
2017-01-21T06:33:46.822Z,0
2017-01-21T06:34:46.788Z,0
2017-01-21T06:35:46.761Z,0
2017-01-21T06:36:46.332Z,0
2017-01-21T06:37:46.701Z,0
2017-01-21T06:38:46.675Z,0
2017-01-21T06:39:46.347Z,0
2017-01-21T06:40:46.937Z,0
2017-01-21T06:41:46.586Z,0
2017-01-21T06:42:46.561Z,4
2017-01-21T06:43:46.564Z,0
2017-01-21T06:44:46.494Z,0
2017-01-21T06:45:46.471Z,4
2017-01-21T06:46:46.745Z,0
2017-01-21T06:47:46.009Z,4
2017-01-21T06:48:46.727Z,0
2017-01-21T06:49:45.948Z,4
2017-01-21T06:50:45.920Z,4
2017-01-21T06:51:46.289Z,4
2017-01-21T06:52:45.860Z,4
2017-01-21T06:53:45.832Z,8
2017-01-21T06:54:45.806Z,12
2017-01-21T06:55:46.176Z,12
2017-01-21T06:56:45.748Z,12
2017-01-21T06:57:45.717Z,16
2017-01-21T06:58:45.682Z,16
2017-01-21T06:59:45.658Z,20
2017-01-21T07:00:46.020Z,20
2017-01-21T07:01:45.208Z,28
2017-01-21T07:02:46.000Z,28
2017-01-21T07:03:45.939Z,36
2017-01-21T07:04:45.511Z,44
2017-01-21T07:05:45.527Z,48
2017-01-21T07:06:45.860Z,52
2017-01-21T07:07:45.832Z,60
2017-01-21T07:08:45.790Z,72
2017-01-21T07:09:45.833Z,76
2017-01-21T07:10:45.734Z,88
2017-01-21T07:11:45.705Z,100
2017-01-21T07:12:45.584Z,112
2017-01-21T07:13:45.247Z,124
2017-01-21T07:14:45.219Z,136
2017-01-21T07:15:45.990Z,148
2017-01-21T07:16:45.555Z,164
2017-01-21T07:17:45.533Z,180
2017-01-21T07:18:45.500Z,200
2017-01-21T07:19:45.069Z,216
2017-01-21T07:20:44.637Z,236
2017-01-21T07:21:45.006Z,256
2017-01-21T07:22:45.412Z,276
2017-01-21T07:23:44.564Z,300
2017-01-21T07:24:44.929Z,324
2017-01-21T07:25:45.289Z,344
2017-01-21T07:26:45.256Z,372
2017-01-21T07:27:44.827Z,396
2017-01-21T07:28:44.811Z,424
2017-01-21T07:29:45.172Z,456
2017-01-21T07:30:45.147Z,488
2017-01-21T07:31:45.122Z,516
2017-01-21T07:32:44.701Z,548
2017-01-21T07:33:44.667Z,584
2017-01-21T07:34:45.032Z,620
2017-01-21T07:35:44.595Z,656
2017-01-21T07:36:44.970Z,696
2017-01-21T07:37:44.548Z,732
2017-01-21T07:38:44.914Z,772
2017-01-21T07:39:44.536Z,820
2017-01-21T07:40:44.859Z,884
2017-01-21T07:41:44.424Z,948
2017-01-21T07:42:44.798Z,1004
2017-01-21T07:43:44.365Z,1064
2017-01-21T07:44:44.739Z,1116
2017-01-21T07:45:44.702Z,1160
2017-01-21T07:46:44.728Z,1232
2017-01-21T07:47:43.854Z,1304
2017-01-21T07:48:44.619Z,1340
2017-01-21T07:49:44.594Z,1388
2017-01-21T07:50:44.566Z,1416
2017-01-21T07:51:44.535Z,1468
2017-01-21T07:52:44.506Z,1488
2017-01-21T07:53:44.074Z,1524
2017-01-21T07:54:44.059Z,1572
2017-01-21T07:55:44.019Z,1596
2017-01-21T07:56:44.393Z,1616
2017-01-21T07:57:43.962Z,1672
2017-01-21T07:58:43.928Z,1748
2017-01-21T07:59:44.312Z,1840
2017-01-21T08:00:43.938Z,1936
2017-01-21T08:01:44.253Z,2016
2017-01-21T08:02:43.815Z,2120
2017-01-21T08:03:43.394Z,2256
2017-01-21T08:04:43.762Z,2468
2017-01-21T08:05:43.733Z,2644
2017-01-21T08:06:44.102Z,2772
2017-01-21T08:07:44.076Z,2876
2017-01-21T08:08:43.259Z,2960
2017-01-21T08:09:44.324Z,3056
2017-01-21T08:10:44.035Z,3140
2017-01-21T08:11:43.963Z,3196
2017-01-21T08:12:43.937Z,3208
2017-01-21T08:13:44.040Z,3252
2017-01-21T08:14:43.079Z,3304
2017-01-21T08:15:43.850Z,3368
2017-01-21T08:16:43.435Z,3452
2017-01-21T08:17:43.395Z,3540
2017-01-21T08:18:43.780Z,3620
2017-01-21T08:19:42.942Z,3716
2017-01-21T08:20:43.719Z,3772
2017-01-21T08:21:43.298Z,3856
2017-01-21T08:22:43.739Z,3936
2017-01-21T08:23:43.641Z,3996
2017-01-21T08:24:43.618Z,4052
2017-01-21T08:25:43.942Z,4140
2017-01-21T08:26:42.763Z,4216
2017-01-21T08:27:43.146Z,4220
2017-01-21T08:28:42.767Z,4240
2017-01-21T08:29:43.089Z,4312
2017-01-21T08:30:43.474Z,4256
2017-01-21T08:31:43.439Z,4188
2017-01-21T08:32:43.471Z,4184
2017-01-21T08:33:43.396Z,4212
2017-01-21T08:34:43.363Z,4240
2017-01-21T08:35:43.391Z,4248
2017-01-21T08:36:43.328Z,4292
2017-01-21T08:37:42.502Z,4352
2017-01-21T08:38:43.328Z,4364
2017-01-21T08:39:42.852Z,4380
2017-01-21T08:40:43.231Z,4376
2017-01-21T08:41:43.199Z,4396
2017-01-21T08:42:43.184Z,4468
2017-01-21T08:43:43.207Z,4500
2017-01-21T08:44:43.138Z,4536
2017-01-21T08:45:43.122Z,4560
2017-01-21T08:46:42.689Z,4632
2017-01-21T08:47:43.069Z,4704
2017-01-21T08:48:43.103Z,4792
2017-01-21T08:49:43.077Z,4904
2017-01-21T08:50:43.299Z,5008
2017-01-21T08:51:42.583Z,5064
2017-01-21T08:52:42.553Z,5108
2017-01-21T08:53:42.526Z,5148
2017-01-21T08:54:42.904Z,5232
2017-01-21T08:55:42.483Z,5272
2017-01-21T08:56:42.910Z,5220
2017-01-21T08:57:42.481Z,5200
2017-01-21T08:58:42.823Z,5304
2017-01-21T08:59:42.393Z,5380
2017-01-21T09:00:42.373Z,5436
2017-01-21T09:01:42.404Z,5308
2017-01-21T09:02:42.722Z,4868
2017-01-21T09:03:42.305Z,4356
2017-01-21T09:04:42.674Z,4184
2017-01-21T09:05:41.863Z,4116
2017-01-21T09:06:42.238Z,4112
2017-01-21T09:07:42.617Z,4132
2017-01-21T09:08:42.588Z,4136
2017-01-21T09:09:42.577Z,4120
2017-01-21T09:10:42.174Z,4104
2017-01-21T09:11:42.126Z,4076
2017-01-21T09:12:42.515Z,4100
2017-01-21T09:13:42.473Z,4108
2017-01-21T09:14:42.054Z,4116
2017-01-21T09:15:42.425Z,4100
2017-01-21T09:16:42.413Z,4104
2017-01-21T09:17:42.035Z,4100
2017-01-21T09:18:42.360Z,4100
2017-01-21T09:19:42.364Z,4060
2017-01-21T09:20:41.923Z,4044
2017-01-21T09:21:41.902Z,4036
2017-01-21T09:22:41.855Z,4044
2017-01-21T09:23:42.243Z,4028
2017-01-21T09:24:42.214Z,4040
2017-01-21T09:25:42.535Z,4024
2017-01-21T09:26:42.256Z,3996
2017-01-21T09:27:42.131Z,3968
2017-01-21T09:28:42.110Z,3972
2017-01-21T09:29:42.082Z,3940
2017-01-21T09:30:41.655Z,3944
2017-01-21T09:31:41.639Z,3936
2017-01-21T09:32:42.004Z,3920
2017-01-21T09:33:42.034Z,3920
2017-01-21T09:34:41.153Z,3904
2017-01-21T09:35:41.940Z,3896
2017-01-21T09:36:41.517Z,3888
2017-01-21T09:37:41.878Z,3892
2017-01-21T09:38:41.452Z,3888
2017-01-21T09:39:41.474Z,3860
2017-01-21T09:40:41.457Z,3856
2017-01-21T09:41:41.770Z,3868
2017-01-21T09:42:41.347Z,3848
2017-01-21T09:43:41.725Z,3824
2017-01-21T09:44:41.298Z,3800
2017-01-21T09:45:41.718Z,3816
2017-01-21T09:46:41.657Z,3824
2017-01-21T09:47:41.612Z,3816
2017-01-21T09:48:41.192Z,3820
2017-01-21T09:49:41.161Z,3784
2017-01-21T09:50:41.539Z,3788
2017-01-21T09:51:41.508Z,3756
2017-01-21T09:52:41.086Z,3748
2017-01-21T09:53:40.678Z,3756
2017-01-21T09:54:41.488Z,3740
2017-01-21T09:55:41.398Z,3700
2017-01-21T09:56:41.374Z,3680
2017-01-21T09:57:41.396Z,3672
2017-01-21T09:58:40.917Z,3640
2017-01-21T09:59:40.901Z,3636
2017-01-21T10:00:40.919Z,3656
2017-01-21T10:01:41.235Z,3636
2017-01-21T10:02:41.212Z,3608
2017-01-21T10:03:41.184Z,3600
2017-01-21T10:04:40.763Z,3576
2017-01-21T10:05:41.133Z,3544
2017-01-21T10:06:40.704Z,3548
2017-01-21T10:07:41.077Z,3540
2017-01-21T10:08:40.656Z,3528
2017-01-21T10:09:41.031Z,3508
2017-01-21T10:10:40.601Z,3504
2017-01-21T10:11:40.177Z,3488
2017-01-21T10:12:40.943Z,3500
2017-01-21T10:13:40.516Z,3468
2017-01-21T10:14:40.501Z,3472
2017-01-21T10:15:40.858Z,3440
2017-01-21T10:16:40.839Z,3464
2017-01-21T10:17:40.813Z,3440
2017-01-21T10:18:40.782Z,3436
2017-01-21T10:19:39.962Z,3412
2017-01-21T10:20:40.733Z,3408
2017-01-21T10:21:40.705Z,3396
2017-01-21T10:22:40.272Z,3388
2017-01-21T10:23:40.652Z,3380
2017-01-21T10:24:40.629Z,3392
2017-01-21T10:25:39.809Z,3400
2017-01-21T10:26:40.173Z,3416
2017-01-21T10:27:40.158Z,3400
2017-01-21T10:28:40.178Z,3388
2017-01-21T10:29:40.498Z,3372
2017-01-21T10:30:40.461Z,3368
2017-01-21T10:31:40.512Z,3388
2017-01-21T10:32:40.415Z,3364
2017-01-21T10:33:40.392Z,3364
2017-01-21T10:34:39.960Z,3356
2017-01-21T10:35:39.941Z,3340
2017-01-21T10:36:40.326Z,3348
2017-01-21T10:37:39.533Z,3356
2017-01-21T10:38:39.860Z,3348
2017-01-21T10:39:39.847Z,3344
2017-01-21T10:40:39.857Z,3352
2017-01-21T10:41:39.784Z,3352
2017-01-21T10:42:40.145Z,3352
2017-01-21T10:43:40.130Z,3348
2017-01-21T10:44:40.099Z,3340
2017-01-21T10:45:40.080Z,3356
2017-01-21T10:46:39.648Z,3344
2017-01-21T10:47:40.069Z,3360
2017-01-21T10:48:40.036Z,3340
2017-01-21T10:49:39.981Z,3348
2017-01-21T10:50:40.039Z,3320
2017-01-21T10:51:39.913Z,3308
2017-01-21T10:52:39.889Z,3320
2017-01-21T10:53:39.463Z,3320
2017-01-21T10:54:39.833Z,3312
2017-01-21T10:55:39.081Z,3324
2017-01-21T10:56:39.391Z,3324
2017-01-21T10:57:39.433Z,3288
2017-01-21T10:58:39.736Z,3308
2017-01-21T10:59:38.963Z,3312
2017-01-21T11:00:38.996Z,3304
2017-01-21T11:01:39.246Z,3296
2017-01-21T11:02:38.834Z,3288
2017-01-21T11:03:39.601Z,3280
2017-01-21T11:04:38.783Z,3264
2017-01-21T11:05:39.549Z,3252
2017-01-21T11:06:39.522Z,3264
2017-01-21T11:07:39.693Z,3256
2017-01-21T11:08:39.072Z,3260
2017-01-21T11:09:39.485Z,3268
2017-01-21T11:10:39.425Z,3256
2017-01-21T11:11:39.391Z,3260
2017-01-21T11:12:39.366Z,3256
2017-01-21T11:13:39.398Z,3256
2017-01-21T11:14:39.311Z,3252
2017-01-21T11:15:38.940Z,3260
2017-01-21T11:16:39.277Z,3240
2017-01-21T11:17:39.244Z,3252
2017-01-21T11:18:39.220Z,3248
2017-01-21T11:19:39.198Z,3228
2017-01-21T11:20:38.783Z,3224
2017-01-21T11:21:38.781Z,3208
2017-01-21T11:22:38.789Z,3212
2017-01-21T11:23:39.084Z,3208
2017-01-21T11:24:38.656Z,3196
2017-01-21T11:25:39.057Z,3184
2017-01-21T11:26:38.999Z,3176
2017-01-21T11:27:38.572Z,3188
2017-01-21T11:28:38.959Z,3188
2017-01-21T11:29:38.923Z,3168
2017-01-21T11:30:38.892Z,3172
2017-01-21T11:31:38.467Z,3160
2017-01-21T11:32:38.848Z,3160
2017-01-21T11:33:38.418Z,3152
2017-01-21T11:34:38.790Z,3148
2017-01-21T11:35:39.078Z,3140
2017-01-21T11:36:38.370Z,3140
2017-01-21T11:37:38.323Z,3140
2017-01-21T11:38:39.142Z,3108
2017-01-21T11:39:38.663Z,3124
2017-01-21T11:40:38.640Z,3116
2017-01-21T11:41:38.617Z,3116
2017-01-21T11:42:38.174Z,3120
2017-01-21T11:43:38.573Z,3108
2017-01-21T11:44:38.592Z,3112
2017-01-21T11:45:38.506Z,3116
2017-01-21T11:46:38.504Z,3112
2017-01-21T11:47:38.461Z,3108
2017-01-21T11:48:38.581Z,3104
2017-01-21T11:49:38.010Z,3116
2017-01-21T11:50:37.609Z,3100
2017-01-21T11:51:38.350Z,3096
2017-01-21T11:52:38.335Z,3088
2017-01-21T11:53:37.912Z,3088
2017-01-21T11:54:38.331Z,3080
2017-01-21T11:55:38.264Z,3080
2017-01-21T11:56:38.228Z,3076
2017-01-21T11:57:37.815Z,3060
2017-01-21T11:58:37.781Z,3056
2017-01-21T11:59:37.785Z,3044
2017-01-21T12:00:38.137Z,3040
2017-01-21T12:01:38.098Z,3032
2017-01-21T12:02:38.071Z,3024
2017-01-21T12:03:37.654Z,3012
2017-01-21T12:04:37.626Z,3000
2017-01-21T12:05:37.615Z,3000
2017-01-21T12:06:37.981Z,3008
2017-01-21T12:07:37.559Z,2996
2017-01-21T12:08:37.927Z,2988
2017-01-21T12:09:37.495Z,2984
2017-01-21T12:10:37.494Z,2992
2017-01-21T12:11:37.852Z,2996
2017-01-21T12:12:37.814Z,2992
2017-01-21T12:13:37.802Z,2972
2017-01-21T12:14:37.768Z,2964
2017-01-21T12:15:37.738Z,2952
2017-01-21T12:16:37.316Z,2948
2017-01-21T12:17:37.798Z,2948
2017-01-21T12:18:37.269Z,2952
2017-01-21T12:19:37.636Z,2956
2017-01-21T12:20:37.643Z,2940
2017-01-21T12:21:37.592Z,2944
2017-01-21T12:22:37.564Z,2944
2017-01-21T12:23:37.540Z,2944
2017-01-21T12:24:37.511Z,2948
2017-01-21T12:25:37.090Z,2944
2017-01-21T12:26:37.458Z,2948
2017-01-21T12:27:37.441Z,2944
2017-01-21T12:28:37.426Z,2944
2017-01-21T12:29:37.409Z,2944
2017-01-21T12:30:37.358Z,2940
2017-01-21T12:31:37.341Z,2936
2017-01-21T12:32:37.318Z,2936
2017-01-21T12:33:37.325Z,2940
2017-01-21T12:34:36.865Z,2928
2017-01-21T12:35:36.882Z,2924
2017-01-21T12:36:37.165Z,2920
2017-01-21T12:37:37.190Z,2896
2017-01-21T12:38:37.163Z,2900
2017-01-21T12:39:36.787Z,2892
2017-01-21T12:40:37.105Z,2880
2017-01-21T12:41:37.082Z,2880
2017-01-21T12:42:36.660Z,2876
2017-01-21T12:43:36.635Z,2868
2017-01-21T12:44:37.006Z,2864
2017-01-21T12:45:36.977Z,2860
2017-01-21T12:46:37.008Z,2856
2017-01-21T12:47:36.939Z,2852
2017-01-21T12:48:36.516Z,2848
2017-01-21T12:49:36.482Z,2844
2017-01-21T12:50:36.464Z,2836
2017-01-21T12:51:36.430Z,2836
2017-01-21T12:52:36.416Z,2824
2017-01-21T12:53:36.784Z,2824
2017-01-21T12:54:36.359Z,2824
2017-01-21T12:55:36.735Z,2816
2017-01-21T12:56:36.759Z,2808
2017-01-21T12:57:36.287Z,2808
2017-01-21T12:58:36.707Z,2808
2017-01-21T12:59:36.232Z,2800
2017-01-21T13:00:36.204Z,2796
2017-01-21T13:01:36.593Z,2796
2017-01-21T13:02:36.554Z,2800
2017-01-21T13:03:36.551Z,2800
2017-01-21T13:04:36.164Z,2796
2017-01-21T13:05:36.831Z,2796
2017-01-21T13:06:36.066Z,2788
2017-01-21T13:07:36.485Z,2780
2017-01-21T13:08:36.405Z,2780
2017-01-21T13:09:36.378Z,2768
2017-01-21T13:10:36.361Z,2760
2017-01-21T13:11:36.324Z,2752
2017-01-21T13:12:35.905Z,2736
2017-01-21T13:13:35.882Z,2724
2017-01-21T13:14:36.250Z,2720
2017-01-21T13:15:36.229Z,2712
2017-01-21T13:16:35.848Z,2704
2017-01-21T13:17:36.175Z,2692
2017-01-21T13:18:35.759Z,2688
2017-01-21T13:19:36.128Z,2692
2017-01-21T13:20:35.360Z,2688
2017-01-21T13:21:36.382Z,2676
2017-01-21T13:22:36.055Z,2676
2017-01-21T13:23:35.623Z,2676
2017-01-21T13:24:36.006Z,2668
2017-01-21T13:25:36.027Z,2664
2017-01-21T13:26:36.004Z,2660
2017-01-21T13:27:36.380Z,2652
2017-01-21T13:28:35.499Z,2644
2017-01-21T13:29:35.076Z,2632
2017-01-21T13:30:35.465Z,2628
2017-01-21T13:31:35.878Z,2620
2017-01-21T13:32:35.805Z,2608
2017-01-21T13:33:35.373Z,2608
2017-01-21T13:34:35.358Z,2600
2017-01-21T13:35:35.722Z,2596
2017-01-21T13:36:35.305Z,2596
2017-01-21T13:37:35.679Z,2588
2017-01-21T13:38:35.307Z,2580
2017-01-21T13:39:35.230Z,2572
2017-01-21T13:40:35.258Z,2568
2017-01-21T13:41:35.196Z,2556
2017-01-21T13:42:34.752Z,2548
2017-01-21T13:43:35.147Z,2536
2017-01-21T13:44:35.500Z,2528
2017-01-21T13:45:35.470Z,2520
2017-01-21T13:46:35.459Z,2512
2017-01-21T13:47:35.472Z,2508
2017-01-21T13:48:35.481Z,2500
2017-01-21T13:49:34.577Z,2488
2017-01-21T13:50:35.348Z,2476
2017-01-21T13:51:34.927Z,2472
2017-01-21T13:52:35.306Z,2460
2017-01-21T13:53:35.280Z,2456
2017-01-21T13:54:35.256Z,2444
2017-01-21T13:55:35.224Z,2436
2017-01-21T13:56:35.197Z,2428
2017-01-21T13:57:34.773Z,2416
2017-01-21T13:58:35.177Z,2400
2017-01-21T13:59:35.123Z,2392
2017-01-21T14:00:35.105Z,2380
2017-01-21T14:01:35.082Z,2372
2017-01-21T14:02:35.053Z,2372